createdAt,value
2022-08-27T18:30:03.328Z,21.54
2022-08-27T18:32:33.257Z,21.49
2022-08-27T18:35:10.563Z,21.42
2022-08-27T18:37:40.347Z,21.37
2022-08-27T18:40:11.836Z,21.27
2022-08-27T18:42:42.710Z,21.21
2022-08-27T18:45:23.081Z,21.16
2022-08-27T18:47:54.495Z,21.06
2022-08-27T18:50:25.278Z,21.03
2022-08-27T18:52:57.563Z,20.99
2022-08-27T18:55:28.713Z,20.95
2022-08-27T18:57:58.616Z,20.89
2022-08-27T19:00:28.471Z,20.87
2022-08-27T19:02:58.281Z,20.77
2022-08-27T19:05:29.989Z,20.71
2022-08-27T19:08:01.063Z,20.64
2022-08-27T19:10:30.783Z,20.58
2022-08-27T19:13:00.469Z,20.52
2022-08-27T19:15:30.243Z,20.48
2022-08-27T19:18:03.055Z,20.37
2022-08-27T19:20:33.834Z,20.37
2022-08-27T19:23:03.696Z,20.27
2022-08-27T19:25:33.522Z,20.26
2022-08-27T19:28:03.718Z,20.18
2022-08-27T19:30:33.461Z,20.14
2022-08-27T19:33:03.259Z,20.10
2022-08-27T19:35:34.395Z,20.06
2022-08-27T19:38:04.684Z,19.99
2022-08-27T19:40:38.438Z,19.94
2022-08-27T19:43:08.535Z,19.90
2022-08-27T19:45:40.451Z,19.87
2022-08-27T19:48:12.642Z,19.81
2022-08-27T19:50:43.237Z,19.78
2022-08-27T19:53:13.404Z,19.73
2022-08-27T19:55:46.210Z,19.66
2022-08-27T19:58:17.319Z,19.60
2022-08-27T20:00:47.964Z,19.55
2022-08-27T20:03:17.903Z,19.52
2022-08-27T20:05:50.683Z,19.43
2022-08-27T20:08:21.021Z,19.38
2022-08-27T20:10:51.422Z,19.34
2022-08-27T20:13:21.535Z,19.29
2022-08-27T20:15:52.835Z,19.23
2022-08-27T20:18:24.036Z,19.19
2022-08-27T20:20:53.805Z,19.14
2022-08-27T20:23:25.052Z,19.10
2022-08-27T20:25:59.155Z,19.07
2022-08-27T20:28:39.782Z,19.05
2022-08-27T20:31:10.681Z,19.03
2022-08-27T20:33:40.786Z,19.01
2022-08-27T20:36:11.379Z,18.96
2022-08-27T20:38:41.417Z,18.93
2022-08-27T20:41:11.244Z,18.91
2022-08-27T20:43:40.926Z,18.91
2022-08-27T20:46:11.307Z,18.89
2022-08-27T20:48:41.055Z,18.86
2022-08-27T20:51:11.452Z,18.84
2022-08-27T20:53:41.217Z,18.84
2022-08-27T20:56:11.257Z,18.81
2022-08-27T20:58:53.398Z,18.78
2022-08-27T21:01:23.743Z,18.76
2022-08-27T21:03:54.439Z,18.74
2022-08-27T21:06:26.527Z,18.71
2022-08-27T21:08:56.821Z,18.70
2022-08-27T21:11:26.911Z,18.71
2022-08-27T21:13:56.900Z,18.70
2022-08-27T21:16:28.296Z,18.70
2022-08-27T21:18:58.294Z,18.69
2022-08-27T21:21:27.985Z,18.67
2022-08-27T21:23:58.245Z,18.69
2022-08-27T21:26:27.982Z,18.65
2022-08-27T21:28:57.695Z,18.66
2022-08-27T21:31:28.159Z,18.64
2022-08-27T21:33:58.215Z,18.64
2022-08-27T21:36:27.864Z,18.64
2022-08-27T21:38:57.654Z,18.64
2022-08-27T21:41:27.417Z,18.60
2022-08-27T21:43:57.818Z,18.56
2022-08-27T21:46:27.513Z,18.55
2022-08-27T21:48:59.122Z,18.53
2022-08-27T21:51:29.086Z,18.51
2022-08-27T21:54:00.413Z,18.44
2022-08-27T21:56:30.763Z,18.36
2022-08-27T21:59:00.525Z,18.34
2022-08-27T22:01:30.306Z,18.34
2022-08-27T22:03:59.964Z,18.35
2022-08-27T22:06:29.718Z,18.29
2022-08-27T22:08:59.441Z,18.27
2022-08-27T22:11:30.632Z,18.22
2022-08-27T22:14:01.159Z,18.16
2022-08-27T22:16:31.030Z,18.14
2022-08-27T22:19:00.769Z,18.14
2022-08-27T22:21:30.459Z,18.13
2022-08-27T22:24:00.199Z,18.08
2022-08-27T22:26:30.257Z,18.07
2022-08-27T22:28:59.939Z,18.05
2022-08-27T22:31:31.289Z,17.98
2022-08-27T22:34:02.850Z,17.96
2022-08-27T22:36:32.635Z,17.95
2022-08-27T22:39:03.705Z,17.92
2022-08-27T22:41:34.084Z,17.89
2022-08-27T22:44:04.575Z,17.89
2022-08-27T22:46:35.663Z,17.85
2022-08-27T22:49:05.503Z,17.87
2022-08-27T22:51:35.210Z,17.86
2022-08-27T22:54:04.940Z,17.83
2022-08-27T22:56:34.677Z,17.82
2022-08-27T22:59:07.346Z,17.82
2022-08-27T23:01:38.780Z,17.79
2022-08-27T23:04:09.255Z,17.77
2022-08-27T23:06:39.238Z,17.74
2022-08-27T23:09:09.138Z,17.73
2022-08-27T23:11:39.056Z,17.69
2022-08-27T23:14:08.750Z,17.68
2022-08-27T23:16:38.602Z,17.63
2022-08-27T23:19:08.258Z,17.57
2022-08-27T23:21:38.565Z,17.53
2022-08-27T23:24:08.328Z,17.52
2022-08-27T23:26:50.629Z,17.49
2022-08-27T23:29:22.690Z,17.47
2022-08-27T23:31:53.965Z,17.46
2022-08-27T23:34:23.920Z,17.41
2022-08-27T23:36:53.641Z,17.41
2022-08-27T23:39:23.377Z,17.37
2022-08-27T23:41:53.142Z,17.36
2022-08-27T23:44:22.865Z,17.35
2022-08-27T23:46:52.565Z,17.35
2022-08-27T23:49:22.274Z,17.37
2022-08-27T23:51:51.971Z,17.34
2022-08-27T23:54:21.855Z,17.37
2022-08-27T23:56:51.538Z,17.36
2022-08-27T23:59:21.255Z,17.35
